createdAt,value
2023-08-17T00:00:35.060Z,1.70
2023-08-17T00:03:07.759Z,1.45
2023-08-17T00:05:41.176Z,1.52
2023-08-17T00:08:13.866Z,1.52
2023-08-17T00:10:48.965Z,1.70
2023-08-17T00:13:21.540Z,1.35
2023-08-17T00:15:54.036Z,1.60
2023-08-17T00:18:26.693Z,1.40
2023-08-17T00:20:59.307Z,1.73
2023-08-17T00:23:31.951Z,1.55
2023-08-17T00:26:04.606Z,1.50
2023-08-17T00:28:37.179Z,1.60
2023-08-17T00:31:09.680Z,1.77
2023-08-17T00:33:42.211Z,1.42
2023-08-17T00:36:14.873Z,1.85
2023-08-17T00:38:47.419Z,1.50
2023-08-17T00:41:20.032Z,1.92
2023-08-17T00:43:52.688Z,1.52
2023-08-17T00:46:25.907Z,1.60
2023-08-17T00:48:59.476Z,1.55
2023-08-17T00:51:32.713Z,1.65
2023-08-17T00:54:05.611Z,1.73
2023-08-17T00:56:38.521Z,1.73
2023-08-17T00:59:11.626Z,1.55
2023-08-17T01:01:44.246Z,1.88
2023-08-17T01:04:17.273Z,1.92
2023-08-17T01:06:50.686Z,1.60
2023-08-17T01:09:23.265Z,1.40
2023-08-17T01:12:15.158Z,1.63
2023-08-17T01:14:50.625Z,1.55
2023-08-17T01:20:00.235Z,1.58
2023-08-17T01:22:37.176Z,1.42
2023-08-17T01:25:10.215Z,1.40
2023-08-17T01:27:46.334Z,2.22
2023-08-17T01:30:20.061Z,1.50
2023-08-17T01:33:02.427Z,1.35
2023-08-17T01:35:39.974Z,1.60
2023-08-17T01:38:24.468Z,1.52
2023-08-17T01:40:58.691Z,1.67
2023-08-17T01:43:31.662Z,1.58
2023-08-17T01:46:04.161Z,1.63
2023-08-17T01:48:37.097Z,1.67
2023-08-17T01:51:11.021Z,1.67
2023-08-17T01:53:43.581Z,1.60
2023-08-17T01:56:16.224Z,2.00
2023-08-17T01:58:48.847Z,1.75
2023-08-17T02:01:21.429Z,1.80
2023-08-17T02:03:54.008Z,2.05
2023-08-17T02:06:26.442Z,2.05
2023-08-17T02:08:59.763Z,1.67
2023-08-17T02:11:32.235Z,1.60
2023-08-17T02:14:04.932Z,1.50
2023-08-17T02:16:37.397Z,1.60
2023-08-17T02:19:09.892Z,1.77
2023-08-17T02:21:42.517Z,1.50
2023-08-17T02:24:15.030Z,1.90
2023-08-17T02:26:47.573Z,1.60
2023-08-17T02:29:20.224Z,1.73
2023-08-17T02:31:52.865Z,2.05
2023-08-17T02:34:25.338Z,1.98
2023-08-17T02:36:58.027Z,1.58
2023-08-17T02:39:30.701Z,1.50
2023-08-17T02:42:03.378Z,1.40
2023-08-17T02:44:36.004Z,1.50
2023-08-17T02:47:08.599Z,1.27
2023-08-17T02:49:41.247Z,1.40
2023-08-17T02:52:13.748Z,1.45
2023-08-17T02:54:46.376Z,1.52
2023-08-17T02:57:19.595Z,1.02
2023-08-17T02:59:52.149Z,1.50
2023-08-17T03:02:24.856Z,1.63
2023-08-17T03:04:57.454Z,1.90
2023-08-17T03:07:30.158Z,1.70
2023-08-17T03:10:02.670Z,1.52
2023-08-17T03:12:35.212Z,1.30
2023-08-17T03:15:08.218Z,1.38
2023-08-17T03:17:40.703Z,1.80
2023-08-17T03:20:13.442Z,1.45
2023-08-17T03:22:45.996Z,1.30
2023-08-17T03:25:19.950Z,1.38
2023-08-17T03:27:52.498Z,1.50
2023-08-17T03:30:25.134Z,1.38
2023-08-17T03:32:58.323Z,1.40
2023-08-17T03:35:30.991Z,1.38
2023-08-17T03:38:03.635Z,1.08
2023-08-17T03:40:37.262Z,1.30
2023-08-17T03:43:09.689Z,1.50
2023-08-17T03:45:42.839Z,1.75
2023-08-17T03:48:15.380Z,1.40
2023-08-17T03:50:48.142Z,1.40
2023-08-17T03:53:20.934Z,1.33
2023-08-17T03:55:53.530Z,1.35
2023-08-17T03:58:27.918Z,1.60
2023-08-17T04:01:00.415Z,1.63
2023-08-17T04:03:32.986Z,1.35
2023-08-17T04:06:11.230Z,1.90
2023-08-17T04:08:43.800Z,1.60
2023-08-17T04:11:16.278Z,1.73
2023-08-17T04:13:48.758Z,2.38
2023-08-17T04:16:21.453Z,1.52
2023-08-17T04:18:54.016Z,1.80
2023-08-17T04:21:26.608Z,1.60
2023-08-17T04:23:59.171Z,2.00
2023-08-17T04:26:31.704Z,1.77
2023-08-17T04:29:04.794Z,1.80
2023-08-17T04:31:37.453Z,1.65
2023-08-17T04:34:10.017Z,2.03
2023-08-17T04:36:42.527Z,1.95
2023-08-17T04:39:15.064Z,1.70
2023-08-17T04:41:48.108Z,1.73
2023-08-17T04:44:20.560Z,1.63
2023-08-17T04:46:53.087Z,1.67
2023-08-17T04:49:25.579Z,1.88
2023-08-17T04:51:58.254Z,1.95
2023-08-17T04:54:30.805Z,2.13
2023-08-17T04:57:04.620Z,1.63
2023-08-17T04:59:37.602Z,1.65
2023-08-17T05:02:10.159Z,1.48
2023-08-17T05:04:43.104Z,1.50
2023-08-17T05:07:15.607Z,1.73
2023-08-17T05:09:48.032Z,1.75
2023-08-17T05:12:20.510Z,2.03
2023-08-17T05:14:53.462Z,1.77
2023-08-17T05:17:26.257Z,1.75
2023-08-17T05:19:58.912Z,1.60
2023-08-17T05:22:31.384Z,1.52
2023-08-17T05:25:04.413Z,1.63
2023-08-17T05:27:36.904Z,1.52
2023-08-17T05:30:09.646Z,1.65
2023-08-17T05:32:42.110Z,1.80
2023-08-17T05:35:14.865Z,1.70
2023-08-17T05:37:47.279Z,1.75
2023-08-17T05:40:20.116Z,2.13
2023-08-17T05:42:52.644Z,1.50
2023-08-17T05:45:25.257Z,1.55
2023-08-17T05:47:57.782Z,1.60
2023-08-17T05:50:30.600Z,1.80
2023-08-17T05:53:03.132Z,1.92
2023-08-17T05:55:36.033Z,1.80
2023-08-17T05:58:08.524Z,1.92
2023-08-17T06:00:41.152Z,1.70
2023-08-17T06:03:13.763Z,3.10
2023-08-17T06:05:46.268Z,1.98
2023-08-17T06:08:18.763Z,1.98
2023-08-17T06:10:51.294Z,1.80
2023-08-17T06:13:23.930Z,1.90
2023-08-17T06:15:59.064Z,2.72
2023-08-17T06:18:32.025Z,1.80
2023-08-17T06:21:04.674Z,1.88
2023-08-17T06:23:37.326Z,2.10
2023-08-17T06:26:12.025Z,2.13
2023-08-17T06:28:44.554Z,1.70
2023-08-17T06:31:17.629Z,2.38
2023-08-17T06:33:50.410Z,2.85
2023-08-17T06:36:22.992Z,1.80
2023-08-17T06:38:55.473Z,2.22
2023-08-17T06:41:27.996Z,2.30
2023-08-17T06:44:00.880Z,2.50
2023-08-17T06:46:33.297Z,1.92
2023-08-17T06:49:05.851Z,2.05
2023-08-17T06:51:38.366Z,2.05
2023-08-17T06:54:10.954Z,2.25
2023-08-17T06:56:43.512Z,2.10
2023-08-17T06:59:16.192Z,2.30
2023-08-17T07:01:48.752Z,2.28
2023-08-17T07:04:21.303Z,2.47
2023-08-17T07:06:53.887Z,2.10
2023-08-17T07:09:26.606Z,2.40
2023-08-17T07:11:59.180Z,2.13
2023-08-17T07:14:31.842Z,2.15
2023-08-17T07:17:04.324Z,2.08
2023-08-17T07:20:03.943Z,1.77
2023-08-17T07:22:29.341Z,2.17
2023-08-17T07:25:01.962Z,2.78
2023-08-17T07:27:34.420Z,2.20
2023-08-17T07:30:08.257Z,2.95
2023-08-17T07:32:41.127Z,2.10
2023-08-17T07:35:13.872Z,2.17
2023-08-17T07:37:55.951Z,2.45
2023-08-17T07:40:36.938Z,1.95
2023-08-17T07:43:09.433Z,2.20
2023-08-17T07:45:42.021Z,2.50
2023-08-17T07:48:14.525Z,2.25
2023-08-17T07:50:53.873Z,2.00
2023-08-17T07:53:26.613Z,2.17
2023-08-17T07:55:59.105Z,2.08
2023-08-17T07:58:31.541Z,3.70
2023-08-17T08:01:04.502Z,2.05
2023-08-17T08:03:37.954Z,2.10
2023-08-17T08:06:10.453Z,2.20
2023-08-17T08:08:42.917Z,1.90
2023-08-17T08:11:15.753Z,1.83
2023-08-17T08:13:48.170Z,1.80
2023-08-17T08:16:20.744Z,2.38
2023-08-17T08:18:54.120Z,2.45
2023-08-17T08:21:28.755Z,2.70
2023-08-17T08:24:01.228Z,2.53
2023-08-17T08:26:33.700Z,2.60
2023-08-17T08:29:06.357Z,2.53
2023-08-17T08:31:38.921Z,2.20
2023-08-17T08:34:11.365Z,2.65
2023-08-17T08:36:43.830Z,2.33
2023-08-17T08:39:16.327Z,2.47
2023-08-17T08:41:48.815Z,2.22
2023-08-17T08:44:21.433Z,1.90
2023-08-17T08:46:56.943Z,2.47
2023-08-17T08:49:30.185Z,2.10
2023-08-17T08:52:05.140Z,2.17
2023-08-17T08:54:40.598Z,2.40
2023-08-17T08:57:17.509Z,2.47
2023-08-17T08:59:50.606Z,2.67
2023-08-17T09:02:23.141Z,2.67
2023-08-17T09:04:55.767Z,2.58
2023-08-17T09:07:30.651Z,2.45
2023-08-17T09:10:04.527Z,2.83
2023-08-17T09:12:40.975Z,2.90
2023-08-17T09:15:14.394Z,2.63
2023-08-17T09:17:48.897Z,3.72
2023-08-17T09:20:47.749Z,2.95
2023-08-17T09:23:23.100Z,3.35
2023-08-17T09:28:40.069Z,2.85
2023-08-17T09:31:12.851Z,2.70
2023-08-17T09:33:50.469Z,3.42
2023-08-17T09:36:23.993Z,3.47
2023-08-17T09:38:58.269Z,3.08
2023-08-17T09:41:30.893Z,3.42
2023-08-17T09:44:03.997Z,3.30
2023-08-17T09:46:36.467Z,3.25
2023-08-17T09:49:10.339Z,3.55
2023-08-17T09:51:45.926Z,3.35
2023-08-17T09:54:24.157Z,3.70
2023-08-17T09:56:58.152Z,4.00
2023-08-17T09:59:30.623Z,4.32
2023-08-17T10:02:05.009Z,4.32
2023-08-17T10:04:38.892Z,4.25
2023-08-17T10:07:13.453Z,4.05
2023-08-17T10:09:50.836Z,3.58
2023-08-17T10:12:28.139Z,4.30
2023-08-17T10:15:04.784Z,3.60
2023-08-17T10:18:15.573Z,4.00
2023-08-17T10:21:02.990Z,4.82
2023-08-17T10:23:36.519Z,4.50
2023-08-17T10:26:09.916Z,4.05
2023-08-17T10:28:42.891Z,4.00
2023-08-17T10:31:15.567Z,4.43
2023-08-17T10:33:49.553Z,4.25
2023-08-17T10:36:23.076Z,4.13
2023-08-17T10:39:29.428Z,5.15
2023-08-17T10:42:02.531Z,4.53
2023-08-17T10:44:49.195Z,4.43
2023-08-17T10:47:35.052Z,4.32
2023-08-17T10:50:23.018Z,4.00
2023-08-17T10:52:55.549Z,4.65
2023-08-17T10:55:40.342Z,3.95
2023-08-17T10:58:16.135Z,4.60
2023-08-17T11:00:55.807Z,3.58
2023-08-17T11:03:30.397Z,3.83
2023-08-17T11:06:18.514Z,4.60
2023-08-17T11:08:59.317Z,4.63
2023-08-17T11:11:32.199Z,4.97
2023-08-17T11:14:04.810Z,4.65
2023-08-17T11:16:37.396Z,4.88
2023-08-17T11:19:13.582Z,5.20
2023-08-17T11:21:46.430Z,4.95
2023-08-17T11:24:19.186Z,4.88
2023-08-17T11:26:51.866Z,4.90
2023-08-17T11:29:24.735Z,4.72
2023-08-17T11:31:57.413Z,4.20
2023-08-17T11:34:30.548Z,5.00
2023-08-17T11:37:05.188Z,5.22
2023-08-17T11:39:37.933Z,5.30
2023-08-17T11:42:10.492Z,4.55
2023-08-17T11:44:42.989Z,4.15
2023-08-17T11:47:15.652Z,4.88
2023-08-17T11:49:51.241Z,5.15
2023-08-17T11:52:27.910Z,4.40
2023-08-17T11:55:01.159Z,4.65
2023-08-17T11:57:34.300Z,5.03
2023-08-17T12:00:11.097Z,4.55
2023-08-17T12:02:46.373Z,4.13
2023-08-17T12:05:24.400Z,5.25
2023-08-17T12:07:57.025Z,4.15
2023-08-17T12:10:32.770Z,4.88
2023-08-17T12:13:05.473Z,4.88
2023-08-17T12:15:39.271Z,4.32
2023-08-17T12:18:11.846Z,4.95
2023-08-17T12:20:45.809Z,4.40
2023-08-17T12:23:19.237Z,4.90
2023-08-17T12:25:58.442Z,5.20
2023-08-17T12:28:30.870Z,5.68
2023-08-17T12:31:05.291Z,4.93
2023-08-17T12:33:37.855Z,5.30
2023-08-17T12:36:10.351Z,4.57
2023-08-17T12:38:46.046Z,5.85
2023-08-17T12:41:18.813Z,5.43
2023-08-17T12:43:51.464Z,5.35
2023-08-17T12:46:23.985Z,5.40
2023-08-17T12:48:56.463Z,5.57
2023-08-17T12:51:28.943Z,4.93
2023-08-17T12:54:01.443Z,4.45
2023-08-17T12:56:33.885Z,5.00
2023-08-17T12:59:06.325Z,5.20
2023-08-17T13:01:39.584Z,5.22
2023-08-17T13:04:12.040Z,4.68
2023-08-17T13:06:49.872Z,4.80
2023-08-17T13:09:22.698Z,5.38
2023-08-17T13:11:55.133Z,5.22
2023-08-17T13:14:27.675Z,6.07
2023-08-17T13:17:00.209Z,5.45
2023-08-17T13:19:32.625Z,4.95
2023-08-17T13:22:05.137Z,5.72
2023-08-17T13:24:37.629Z,6.32
2023-08-17T13:27:10.064Z,6.40
2023-08-17T13:29:42.558Z,6.72
2023-08-17T13:32:14.956Z,5.15
2023-08-17T13:34:47.423Z,5.82
2023-08-17T13:37:20.530Z,5.88
2023-08-17T13:39:53.045Z,5.50
2023-08-17T13:42:25.687Z,5.50
2023-08-17T13:44:58.461Z,6.60
2023-08-17T13:47:31.043Z,6.32
2023-08-17T13:50:04.406Z,5.85
2023-08-17T13:52:37.079Z,5.60
2023-08-17T13:55:09.815Z,5.95
2023-08-17T13:57:42.287Z,5.45
2023-08-17T14:00:14.982Z,5.85
2023-08-17T14:02:48.584Z,5.93
2023-08-17T14:05:21.426Z,4.90
2023-08-17T14:07:53.923Z,5.78
2023-08-17T14:10:38.462Z,5.65
2023-08-17T14:13:12.050Z,5.75
2023-08-17T14:15:44.471Z,6.15
2023-08-17T14:18:17.004Z,5.68
2023-08-17T14:20:49.511Z,5.95
2023-08-17T14:23:21.992Z,6.40
2023-08-17T14:25:54.442Z,5.85
2023-08-17T14:28:27.607Z,6.40
2023-08-17T14:31:00.085Z,6.15
2023-08-17T14:33:32.488Z,6.63
2023-08-17T14:36:05.105Z,6.22
2023-08-17T14:38:37.555Z,6.53
2023-08-17T14:41:10.451Z,6.68
2023-08-17T14:43:42.921Z,6.35
2023-08-17T14:46:15.874Z,6.38
2023-08-17T14:48:48.473Z,5.95
2023-08-17T14:51:20.906Z,6.32
2023-08-17T14:53:53.857Z,6.35
2023-08-17T14:56:26.318Z,6.78
2023-08-17T14:58:58.832Z,6.95
2023-08-17T15:01:31.820Z,6.30
2023-08-17T15:04:04.493Z,6.00
2023-08-17T15:09:14.311Z,6.63
2023-08-17T15:11:46.960Z,5.95
2023-08-17T15:14:19.522Z,7.13
2023-08-17T15:16:52.279Z,6.60
2023-08-17T15:19:38.264Z,6.53
2023-08-17T15:24:47.979Z,7.40
2023-08-17T15:27:21.008Z,6.90
2023-08-17T15:29:53.505Z,7.15
2023-08-17T15:32:26.317Z,6.88
2023-08-17T15:34:58.894Z,6.60
2023-08-17T15:37:31.660Z,7.70
2023-08-17T15:40:04.654Z,7.72
2023-08-17T15:42:37.067Z,5.95
2023-08-17T15:45:09.809Z,6.88
2023-08-17T15:47:42.289Z,6.43
2023-08-17T15:50:15.067Z,6.40
2023-08-17T15:52:47.467Z,7.40
2023-08-17T15:55:19.878Z,7.13
2023-08-17T15:57:53.812Z,7.00
2023-08-17T16:00:26.422Z,6.30
2023-08-17T16:02:58.995Z,7.65
2023-08-17T16:05:31.771Z,6.90
2023-08-17T16:08:04.471Z,7.15
2023-08-17T16:10:37.808Z,7.18
2023-08-17T16:13:10.326Z,7.60
2023-08-17T16:15:42.818Z,7.45
2023-08-17T16:18:15.416Z,7.57
2023-08-17T16:20:47.888Z,6.95
2023-08-17T16:23:23.073Z,7.47
2023-08-17T16:25:55.633Z,7.18
2023-08-17T16:28:28.088Z,8.25
2023-08-17T16:31:04.480Z,7.00
2023-08-17T16:33:37.618Z,7.63
2023-08-17T16:36:10.205Z,6.57
2023-08-17T16:38:42.762Z,7.18
2023-08-17T16:41:15.231Z,7.70
2023-08-17T16:43:47.943Z,7.50
2023-08-17T16:46:20.420Z,7.28
2023-08-17T16:48:52.927Z,8.02
2023-08-17T16:51:25.385Z,6.80
2023-08-17T16:53:58.976Z,7.38
2023-08-17T16:56:31.426Z,6.72
2023-08-17T16:59:03.984Z,6.65
2023-08-17T17:01:36.447Z,7.47
2023-08-17T17:04:09.076Z,6.43
2023-08-17T17:06:42.452Z,6.78
2023-08-17T17:09:15.036Z,6.97
2023-08-17T17:11:47.715Z,7.47
2023-08-17T17:14:20.250Z,6.63
2023-08-17T17:16:52.731Z,6.00
2023-08-17T17:19:25.289Z,6.88
2023-08-17T17:21:57.677Z,6.75
2023-08-17T17:24:32.174Z,7.18
2023-08-17T17:27:04.635Z,6.97
2023-08-17T17:29:37.128Z,6.80
2023-08-17T17:32:09.648Z,7.00
2023-08-17T17:34:42.162Z,6.65
2023-08-17T17:37:14.616Z,7.72
2023-08-17T17:39:47.056Z,8.05
2023-08-17T17:42:19.551Z,8.20
2023-08-17T17:44:52.039Z,8.02
2023-08-17T17:47:24.487Z,8.15
2023-08-17T17:49:56.943Z,8.00
2023-08-17T17:52:30.551Z,9.02
2023-08-17T17:55:03.681Z,7.75
2023-08-17T17:57:36.286Z,8.18
2023-08-17T18:00:11.199Z,7.85
2023-08-17T18:02:43.750Z,6.97
2023-08-17T18:05:16.185Z,8.00
2023-08-17T18:07:48.591Z,9.15
2023-08-17T18:10:21.101Z,7.40
2023-08-17T18:12:53.590Z,7.10
2023-08-17T18:15:26.045Z,7.13
2023-08-17T18:17:58.748Z,7.88
2023-08-17T18:20:31.701Z,7.15
2023-08-17T18:23:04.320Z,7.18
2023-08-17T18:25:36.757Z,6.68
2023-08-17T18:28:09.214Z,7.50
2023-08-17T18:30:41.867Z,7.55
2023-08-17T18:33:14.892Z,8.48
2023-08-17T18:35:47.379Z,6.53
2023-08-17T18:38:20.286Z,6.70
2023-08-17T18:40:54.341Z,7.38
2023-08-17T18:43:27.174Z,7.35
2023-08-17T18:45:59.693Z,7.63
2023-08-17T18:48:32.673Z,7.78
2023-08-17T18:51:05.220Z,7.88
2023-08-17T18:53:38.198Z,7.40
2023-08-17T18:56:10.772Z,6.75
2023-08-17T18:58:43.487Z,7.75
2023-08-17T19:01:16.072Z,7.40
2023-08-17T19:03:49.171Z,8.32
2023-08-17T19:06:24.774Z,7.55
2023-08-17T19:08:57.424Z,7.30
2023-08-17T19:11:30.341Z,6.85
2023-08-17T19:14:04.544Z,7.05
2023-08-17T19:16:37.196Z,7.57
2023-08-17T19:19:10.953Z,8.05
2023-08-17T19:21:43.666Z,8.07
2023-08-17T19:24:16.369Z,7.38
2023-08-17T19:26:48.937Z,7.93
2023-08-17T19:29:21.629Z,7.28
2023-08-17T19:31:54.366Z,7.60
2023-08-17T19:34:27.121Z,8.32
2023-08-17T19:36:59.881Z,8.35
2023-08-17T19:39:32.513Z,7.22
2023-08-17T19:42:05.405Z,8.60
2023-08-17T19:44:38.045Z,7.20
2023-08-17T19:47:10.717Z,8.25
2023-08-17T19:49:43.259Z,7.53
2023-08-17T19:52:16.096Z,8.05
2023-08-17T19:54:52.880Z,8.07
2023-08-17T19:57:26.706Z,7.80
2023-08-17T19:59:59.441Z,7.38
2023-08-17T20:02:32.047Z,8.13
2023-08-17T20:05:05.958Z,8.50
2023-08-17T20:07:39.425Z,8.38
2023-08-17T20:10:12.578Z,8.82
2023-08-17T20:12:45.288Z,8.85
2023-08-17T20:15:17.994Z,8.30
2023-08-17T20:17:50.715Z,9.00
2023-08-17T20:20:23.437Z,9.30
2023-08-17T20:22:56.041Z,8.48
2023-08-17T20:25:28.458Z,9.52
2023-08-17T20:28:02.209Z,9.95
2023-08-17T20:30:34.800Z,9.13
2023-08-17T20:33:07.550Z,9.30
2023-08-17T20:35:41.305Z,9.80
2023-08-17T20:38:13.937Z,10.02
2023-08-17T20:40:46.556Z,10.35
2023-08-17T20:43:19.293Z,10.98
2023-08-17T20:45:51.955Z,10.73
2023-08-17T20:48:24.394Z,10.13
2023-08-17T20:50:58.059Z,9.73
2023-08-17T20:53:30.552Z,9.75
2023-08-17T20:56:04.078Z,10.80
2023-08-17T20:58:36.770Z,10.02
2023-08-17T21:01:09.392Z,10.70
2023-08-17T21:03:41.981Z,9.95
2023-08-17T21:06:14.843Z,10.55
2023-08-17T21:08:47.321Z,11.10
2023-08-17T21:11:20.242Z,10.38
2023-08-17T21:13:52.848Z,11.20
2023-08-17T21:16:25.276Z,10.38
2023-08-17T21:19:00.586Z,11.02
2023-08-17T21:21:33.101Z,10.45
2023-08-17T21:24:05.944Z,10.18
2023-08-17T21:26:38.390Z,10.27
2023-08-17T21:29:11.096Z,10.60
2023-08-17T21:31:43.670Z,10.40
2023-08-17T21:34:19.118Z,10.27
2023-08-17T21:39:24.022Z,10.50
2023-08-17T21:41:56.526Z,10.30
2023-08-17T21:44:31.971Z,9.63
2023-08-17T21:49:36.891Z,9.57
2023-08-17T21:52:09.572Z,9.77
2023-08-17T21:54:42.589Z,10.77
2023-08-17T21:57:15.046Z,10.07
2023-08-17T21:59:47.573Z,9.63
2023-08-17T22:02:20.048Z,9.57
2023-08-17T22:04:52.537Z,8.95
2023-08-17T22:07:25.050Z,10.10
2023-08-17T22:09:57.653Z,9.55
2023-08-17T22:12:30.085Z,8.80
2023-08-17T22:15:02.632Z,8.95
2023-08-17T22:17:35.284Z,8.98
2023-08-17T22:20:09.555Z,7.80
2023-08-17T22:22:42.258Z,8.48
2023-08-17T22:25:14.996Z,8.20
2023-08-17T22:27:47.535Z,8.48
2023-08-17T22:30:20.049Z,7.95
2023-08-17T22:32:52.777Z,7.53
2023-08-17T22:35:25.505Z,7.75
2023-08-17T22:37:57.927Z,7.95
2023-08-17T22:40:30.578Z,7.95
2023-08-17T22:43:03.145Z,8.13
2023-08-17T22:45:35.622Z,8.15
2023-08-17T22:48:08.168Z,7.28
2023-08-17T22:50:41.355Z,8.52
2023-08-17T22:53:14.050Z,7.85
2023-08-17T22:55:46.584Z,8.85
2023-08-17T22:58:19.273Z,7.70
2023-08-17T23:00:51.752Z,7.95
2023-08-17T23:03:24.418Z,8.05
2023-08-17T23:05:57.025Z,7.53
2023-08-17T23:08:30.239Z,7.72
2023-08-17T23:11:03.410Z,7.85
2023-08-17T23:13:36.069Z,7.45
2023-08-17T23:16:08.600Z,7.30
2023-08-17T23:18:41.118Z,6.93
2023-08-17T23:21:13.710Z,7.68
2023-08-17T23:23:46.189Z,7.03
2023-08-17T23:26:18.724Z,6.43
2023-08-17T23:28:51.404Z,6.88
2023-08-17T23:31:23.925Z,6.55
2023-08-17T23:33:56.518Z,7.20
2023-08-17T23:36:29.164Z,6.57
2023-08-17T23:39:01.674Z,5.97
2023-08-17T23:41:34.345Z,6.30
2023-08-17T23:44:16.064Z,6.47
2023-08-17T23:46:48.909Z,6.20
2023-08-17T23:49:21.593Z,6.18
2023-08-17T23:51:54.070Z,7.05
2023-08-17T23:54:26.647Z,6.40
2023-08-17T23:56:59.043Z,6.30
2023-08-17T23:59:31.635Z,6.32
